Lake Clark National Park, AK

6:15 AM AKDT on September 25, 2016 (GMT -0800)
Sparrevohn | | Change Station

Elev 1588 ft 61.10 °N, 155.57 °W | Updated 20 minutes ago

Clear
Clear
34 °F
Feels Like 30 °F
N
5
Wind Variable Wind from North

Today
High -- | Low -- °F
--% Chance of Precip.
Yesterday
High -- | Low -- °F
Precip. -- in
Pressure 29.90 in
Visibility 10.0 miles
Clouds Clear
Windchill 30 °F
Dew Point 30 °F
Humidity 85%
Rainfall 0.00 in
Snow Depth Not available.
8:11 AM 8:06 PM
Waning Crescent, 27% visible
METAR PASV 251355Z AUTO 01004KT 10SM CLR 01/M01 A2985 RMK AO2 LTG DSNT SW SLP124 T00131009
Pressure 29.90 in
Visibility 10.0 miles
Clouds Clear
Windchill 30 °F
Dew Point 30 °F
Humidity 85%
Rainfall 0.00 in
Snow Depth Not available.
8:11 AM 8:06 PM
Waning Crescent, 27% visible
METAR PASV 251355Z AUTO 01004KT 10SM CLR 01/M01 A2985 RMK AO2 LTG DSNT SW SLP124 T00131009

10-Day Weather Forecast

Almanac

Astronomy

Sep. 25, 2016 Rise Set
Actual Time
Civil Twilight
Nautical Twilight
Astronomical Twilight
Moon
Length of Visible Light
Length of Day
Tomorrow will be .
, % of the Moon is Illuminated

Today's Extremes

State Highs State Lows

Community

WunderPhotos

Upload Photos

1,941,618 photos uploaded!

WunderBlog® & News

Nearby

Air Quality

  Air Quality AQ Index Pollutant
Not available.

Snow Depth

Station Depth Elevation

Earthquake Activity

City Distance Mag. Time & Date
Minimum magnitude displayed is 2.5.

Coastal Water Temperatures

Place Temperature

Stations

Nearby Weather Stations

Station Location Temp. Windchill Dew Point Humidity Wind Precip. Elev Updated Type
                   

Watches & Warnings

There are currently no watches in effect.